Time;durP1;ratioP1;P1;durP2;ratioP2;P2;SDS_P1;SDS_P2;PMS_P1;PMS_P2;Temp;Humidity;BMP_temperature;BMP_pressure;BME280_temperature;BME280_humidity;BME280_pressure;Samples;Min_cycle;Max_cycle;Signal;HPM_P1;HPM_P2
2023/08/26 00:01:35;;;;;;;;;3.33;3.33;;;;;-143.90;80.72;73510.38;4953174;28;102490;-75
2023/08/26 00:04:01;;;;;;;;;4.00;4.00;;;;;-143.90;80.65;73506.25;4960698;28;102209;-75
2023/08/26 00:06:28;;;;;;;;;3.00;3.00;;;;;-143.90;80.35;73504.19;4957365;27;104265;-75
2023/08/26 00:08:55;;;;;;;;;5.00;4.00;;;;;-143.90;80.08;73504.19;4950038;27;102410;-75
2023/08/26 00:11:21;;;;;;;;;3.33;3.00;;;;;-143.90;81.48;73510.38;4971873;27;102098;-75
2023/08/26 00:13:49;;;;;;;;;4.00;4.00;;;;;-143.90;82.06;73514.50;4955939;28;102080;-75
2023/08/26 00:16:15;;;;;;;;;4.67;4.00;;;;;-143.90;82.65;73518.66;4951077;28;104109;-75
2023/08/26 00:18:42;;;;;;;;;3.33;3.00;;;;;-143.90;82.53;73522.78;4958909;27;102142;-75
2023/08/26 00:21:10;;;;;;;;;3.00;3.00;;;;;-143.90;82.35;73518.66;4955845;27;102548;-75
2023/08/26 00:23:37;;;;;;;;;2.00;2.00;;;;;-143.90;82.34;73514.50;4960190;28;102288;-75
2023/08/26 00:26:03;;;;;;;;;1.00;1.00;;;;;-143.90;81.87;73516.56;4954033;28;104052;-75
2023/08/26 00:28:30;;;;;;;;;2.67;2.00;;;;;-143.90;81.85;73512.44;4964404;28;102402;-75
2023/08/26 00:30:58;;;;;;;;;3.00;3.00;;;;;-143.90;81.50;73508.31;4969661;28;102444;-75
2023/08/26 00:33:26;;;;;;;;;2.00;2.00;;;;;-143.90;81.34;73512.44;4953876;28;102051;-75
2023/08/26 00:35:53;;;;;;;;;2.33;2.00;;;;;-143.90;81.70;73512.44;4961352;28;103845;-75
2023/08/26 00:38:20;;;;;;;;;3.00;3.00;;;;;-143.90;81.32;73514.50;4958062;28;102049;-75
2023/08/26 00:40:47;;;;;;;;;2.00;2.00;;;;;-143.90;81.43;73522.78;4949089;28;101961;-75
2023/08/26 00:43:13;;;;;;;;;2.00;2.00;;;;;-143.90;81.12;73526.91;4948191;28;102085;-75
2023/08/26 00:45:46;;;;;;;;;4.00;2.00;;;;;-143.90;81.35;73526.91;4951511;28;103980;-75
2023/08/26 00:48:14;;;;;;;;;2.67;2.00;;;;;-143.90;81.58;73543.44;4954405;27;101925;-75
2023/08/26 00:50:43;;;;;;;;;2.67;2.33;;;;;-143.90;81.39;73547.56;4956487;28;104243;-75
2023/08/26 00:53:12;;;;;;;;;2.67;2.67;;;;;-143.90;81.42;73551.72;4968810;27;102071;-75
2023/08/26 00:55:43;;;;;;;;;1.33;1.00;;;;;-143.90;82.26;73547.56;4961188;27;104167;-75
2023/08/26 00:58:10;;;;;;;;;2.00;2.00;;;;;-143.90;82.14;73562.03;4959033;28;102504;-75
2023/08/26 01:00:39;;;;;;;;;1.00;1.00;;;;;-143.90;83.12;73576.50;4961541;28;102335;-75
2023/08/26 01:03:06;;;;;;;;;2.00;2.00;;;;;-143.90;84.46;73597.16;4946195;28;102105;-75
2023/08/26 01:05:34;;;;;;;;;4.00;4.00;;;;;-143.90;84.61;73601.31;4959568;27;104255;-75
2023/08/26 01:08:05;;;;;;;;;2.00;2.00;;;;;-143.90;84.96;73607.50;4954210;27;102426;-75
2023/08/26 01:10:45;;;;;;;;;5.00;4.00;;;;;-143.90;84.60;73609.56;4954968;28;102537;-75
2023/08/26 01:13:15;;;;;;;;;3.33;3.00;;;;;-143.90;84.09;73601.31;4950117;28;102999;-75
2023/08/26 01:15:52;;;;;;;;;3.00;2.00;;;;;-143.90;83.91;73605.44;4952847;27;104080;-75
2023/08/26 01:18:19;;;;;;;;;3.00;2.00;;;;;-143.90;83.80;73605.44;4961093;28;102151;-75
2023/08/26 01:20:48;;;;;;;;;2.33;2.00;;;;;-143.90;83.33;73605.44;4955507;27;102085;-75
2023/08/26 01:23:31;;;;;;;;;3.00;3.00;;;;;-143.90;83.37;73605.44;4947790;27;104597;-75
2023/08/26 01:25:58;;;;;;;;;3.00;2.00;;;;;-143.90;83.57;73609.56;4953224;27;108674;-76
2023/08/26 01:28:25;;;;;;;;;3.00;3.00;;;;;-143.90;83.07;73601.31;4952199;28;104235;-77
2023/08/26 01:30:54;;;;;;;;;4.67;4.00;;;;;-143.90;83.54;73609.56;4959362;27;102447;-75
2023/08/26 01:33:28;;;;;;;;;4.67;4.67;;;;;-143.90;83.41;73611.63;4961739;28;102037;-75
2023/08/26 01:36:00;;;;;;;;;6.33;5.00;;;;;-143.90;84.95;73621.97;4966491;27;108749;-76
2023/08/26 01:38:29;;;;;;;;;3.33;3.00;;;;;-143.90;85.82;73630.25;4949816;28;102207;-76
2023/08/26 01:40:56;;;;;;;;;7.33;5.67;;;;;-143.90;86.45;73638.50;4953827;27;101913;-76
2023/08/26 01:43:24;;;;;;;;;4.33;4.33;;;;;-143.90;87.16;73646.78;4962397;28;101966;-75
2023/08/26 01:45:52;;;;;;;;;5.67;5.00;;;;;-143.90;87.73;73655.03;4954315;27;108802;-75
2023/08/26 01:48:18;;;;;;;;;6.67;5.33;;;;;-143.90;87.91;73663.31;4951550;28;102392;-75
2023/08/26 01:50:45;;;;;;;;;6.33;6.33;;;;;-143.90;88.43;73679.84;4955680;27;102152;-75
2023/08/26 01:53:12;;;;;;;;;6.00;6.00;;;;;-143.90;89.68;73696.38;4966345;28;102290;-75
2023/08/26 01:55:38;;;;;;;;;5.33;5.00;;;;;-143.90;89.62;73704.63;4961403;27;104137;-76
2023/08/26 01:58:05;;;;;;;;;7.00;6.67;;;;;-143.90;89.51;73700.50;4954997;28;102063;-75
2023/08/26 02:00:32;;;;;;;;;6.00;6.00;;;;;-143.90;88.74;73696.38;4954954;27;102188;-75
2023/08/26 02:02:58;;;;;;;;;5.00;4.67;;;;;-143.90;88.25;73704.63;4954072;28;102520;-76
2023/08/26 02:05:25;;;;;;;;;5.00;4.67;;;;;-143.90;87.65;73698.44;4957835;28;104015;-75
2023/08/26 02:07:52;;;;;;;;;5.00;4.00;;;;;-143.90;86.18;73708.78;4974897;27;101830;-75
2023/08/26 02:10:18;;;;;;;;;4.33;4.33;;;;;-143.90;85.53;73708.78;4954954;27;102347;-75
2023/08/26 02:12:45;;;;;;;;;4.33;4.00;;;;;-143.90;85.79;73714.97;4954901;28;102111;-75
2023/08/26 02:15:12;;;;;;;;;3.67;3.67;;;;;-143.90;87.13;73737.69;4957873;27;104058;-75
2023/08/26 02:17:39;;;;;;;;;5.67;5.33;;;;;-143.90;88.42;73754.25;4953433;28;102246;-75
2023/08/26 02:20:07;;;;;;;;;7.00;7.00;;;;;-143.90;89.35;73768.69;4963839;28;102265;-75
2023/08/26 02:22:34;;;;;;;;;6.67;6.00;;;;;-143.90;90.15;73772.84;4953277;27;102095;-75
2023/08/26 02:25:01;;;;;;;;;7.00;7.00;;;;;-143.90;90.30;73783.16;4950408;27;104174;-76
2023/08/26 02:27:27;;;;;;;;;9.00;8.00;;;;;-143.90;90.76;73795.56;4955122;28;102361;-76
2023/08/26 02:29:54;;;;;;;;;7.00;6.67;;;;;-143.90;91.16;73797.63;4961768;28;102209;-75
2023/08/26 02:32:20;;;;;;;;;6.00;6.00;;;;;-143.90;91.53;73793.50;4959415;28;102632;-76
2023/08/26 02:34:47;;;;;;;;;6.33;6.33;;;;;-143.90;91.73;73797.63;4951384;28;103748;-76
2023/08/26 02:37:13;;;;;;;;;5.00;5.00;;;;;-143.90;91.41;73793.50;4952058;28;102276;-76
2023/08/26 02:39:40;;;;;;;;;6.00;5.00;;;;;-143.90;90.40;73787.31;4952076;27;102364;-76
2023/08/26 02:42:07;;;;;;;;;4.33;4.00;;;;;-143.90;89.30;73797.63;4957195;27;103613;-76
2023/08/26 02:44:33;;;;;;;;;9.33;9.00;;;;;-143.90;88.35;73795.56;4955086;28;104133;-76
2023/08/26 02:47:00;;;;;;;;;6.00;4.00;;;;;-143.90;88.43;73793.50;4958227;28;102272;-76
2023/08/26 02:49:26;;;;;;;;;5.00;5.00;;;;;-143.90;88.06;73799.69;4951758;27;102453;-76
2023/08/26 02:51:53;;;;;;;;;7.00;7.00;;;;;-143.90;87.51;73797.63;4953166;28;102242;-76
2023/08/26 02:54:19;;;;;;;;;15.33;13.33;;;;;-143.90;88.10;73807.97;4955774;28;105129;-76
2023/08/26 02:56:46;;;;;;;;;10.00;9.33;;;;;-143.90;88.97;73814.16;4952895;28;102386;-76
2023/08/26 02:59:13;;;;;;;;;9.00;9.00;;;;;-143.90;89.30;73814.16;4953937;28;102622;-76
2023/08/26 03:01:40;;;;;;;;;6.67;6.67;;;;;-143.90;89.49;73824.50;4957563;28;102168;-76
2023/08/26 03:04:06;;;;;;;;;6.00;5.00;;;;;-143.90;89.09;73822.44;4955446;28;104100;-76
2023/08/26 03:06:33;;;;;;;;;6.67;6.67;;;;;-143.90;89.05;73830.69;4950745;28;102502;-76
2023/08/26 03:09:00;;;;;;;;;5.00;4.33;;;;;-143.90;89.53;73836.91;4948361;28;102235;-76
2023/08/26 03:11:26;;;;;;;;;6.00;5.00;;;;;-143.90;89.60;73841.03;4955171;28;102032;-77
2023/08/26 03:13:53;;;;;;;;;8.33;8.33;;;;;-143.90;90.05;73853.44;4969687;28;108827;-76
2023/08/26 03:16:19;;;;;;;;;14.00;12.33;;;;;-143.90;90.25;73845.16;4961122;28;102197;-76
2023/08/26 03:18:46;;;;;;;;;7.00;6.00;;;;;-143.90;90.38;73847.25;4958954;28;101930;-76
2023/08/26 03:21:14;;;;;;;;;6.00;5.00;;;;;-143.90;89.51;73851.38;4955623;28;102006;-76
2023/08/26 03:23:41;;;;;;;;;3.33;3.33;;;;;-143.90;88.31;73853.44;4953803;28;105398;-76
2023/08/26 03:26:07;;;;;;;;;5.00;4.67;;;;;-143.90;88.75;73853.44;4954417;28;102717;-76
2023/08/26 03:28:34;;;;;;;;;4.33;4.33;;;;;-143.90;88.63;73855.50;4958975;27;102384;-76
2023/08/26 03:31:05;;;;;;;;;4.33;4.00;;;;;-143.90;88.02;73857.56;4952651;28;103413;-76
2023/08/26 03:33:35;;;;;;;;;4.00;4.00;;;;;-143.90;87.77;73855.50;4952225;28;103061;-76
2023/08/26 03:36:03;;;;;;;;;3.33;3.00;;;;;-143.90;87.78;73865.84;4952494;28;102634;-76
2023/08/26 03:38:30;;;;;;;;;3.67;3.67;;;;;-143.90;87.87;73867.91;4954238;28;103928;-76
2023/08/26 03:40:56;;;;;;;;;4.33;4.33;;;;;-143.90;88.79;73872.03;4954812;28;102085;-77
2023/08/26 03:43:23;;;;;;;;;4.00;4.00;;;;;-143.90;89.10;73874.09;4950574;27;108862;-76
2023/08/26 03:45:50;;;;;;;;;5.00;5.00;;;;;-143.90;89.12;73878.25;4946371;28;102591;-76
2023/08/26 03:48:16;;;;;;;;;5.33;5.33;;;;;-143.90;88.88;73876.16;4956822;28;102628;-75
2023/08/26 03:50:50;;;;;;;;;4.00;3.00;;;;;-143.90;89.10;73874.09;4967658;28;102226;-76
2023/08/26 03:53:20;;;;;;;;;6.00;5.67;;;;;-143.90;88.48;73878.25;4966721;27;104129;-76
2023/08/26 03:55:47;;;;;;;;;4.67;4.67;;;;;-143.90;88.42;73876.16;4948460;28;103622;-76
2023/08/26 03:58:14;;;;;;;;;6.00;6.00;;;;;-143.90;87.70;73878.25;4970208;28;102488;-76
2023/08/26 04:00:41;;;;;;;;;7.67;7.33;;;;;-143.90;88.44;73874.09;4967040;27;102482;-76
2023/08/26 04:03:08;;;;;;;;;6.00;5.33;;;;;-143.90;87.93;73872.03;4969427;28;104208;-76
2023/08/26 04:05:35;;;;;;;;;3.00;3.00;;;;;-143.90;87.66;73878.25;4954075;28;102979;-76
2023/08/26 04:08:02;;;;;;;;;4.67;4.67;;;;;-143.90;86.99;73886.50;4966592;28;102499;-76
2023/08/26 04:10:29;;;;;;;;;4.33;3.00;;;;;-143.90;86.62;73884.44;4960216;28;102184;-77
2023/08/26 04:13:18;;;;;;;;;4.67;4.00;;;;;-143.90;86.25;73884.44;4962892;28;104147;-76
2023/08/26 04:15:45;;;;;;;;;3.67;3.67;;;;;-143.90;86.21;73898.91;4958057;28;103014;-76
2023/08/26 04:18:13;;;;;;;;;2.67;2.67;;;;;-143.90;86.33;73894.78;4959498;27;102389;-76
2023/08/26 04:20:39;;;;;;;;;4.00;2.00;;;;;-143.90;86.53;73900.97;4950398;28;102163;-76
2023/08/26 04:23:06;;;;;;;;;3.00;3.00;;;;;-143.90;86.92;73903.03;4952800;28;104344;-76
2023/08/26 04:25:32;;;;;;;;;4.00;2.33;;;;;-143.90;87.25;73894.78;4944999;28;102143;-76
2023/08/26 04:27:59;;;;;;;;;2.33;2.33;;;;;-143.90;87.51;73890.63;4963252;27;102334;-76
2023/08/26 04:30:26;;;;;;;;;4.00;3.00;;;;;-143.90;87.63;73882.38;4971505;28;102068;-76
2023/08/26 04:32:52;;;;;;;;;2.67;2.67;;;;;-143.90;87.77;73882.38;4952574;28;108703;-76
2023/08/26 04:35:19;;;;;;;;;3.00;3.00;;;;;-143.90;87.67;73872.03;4956721;28;102484;-76
2023/08/26 04:37:46;;;;;;;;;2.67;2.67;;;;;-143.90;87.87;73867.91;4954339;28;101983;-76
2023/08/26 04:40:13;;;;;;;;;2.67;2.67;;;;;-143.90;88.31;73861.69;4958022;28;101839;-76
2023/08/26 04:42:40;;;;;;;;;3.00;3.00;;;;;-143.90;88.50;73855.50;4951113;28;104443;-77
2023/08/26 04:45:08;;;;;;;;;4.00;4.00;;;;;-143.90;88.66;73849.31;4951781;28;102509;-76
2023/08/26 04:47:36;;;;;;;;;3.00;3.00;;;;;-143.90;88.77;73843.09;4954837;28;102067;-76
2023/08/26 04:50:04;;;;;;;;;3.00;3.00;;;;;-143.90;88.58;73841.03;4954042;28;102875;-77
2023/08/26 04:52:30;;;;;;;;;5.33;5.00;;;;;-143.90;90.10;73841.03;4949403;28;104175;-76
2023/08/26 04:54:57;;;;;;;;;6.00;6.00;;;;;-143.90;90.91;73843.09;4957834;28;102070;-77
2023/08/26 04:57:23;;;;;;;;;7.00;7.00;;;;;-143.90;91.04;73845.16;4952100;28;102412;-76
2023/08/26 04:59:50;;;;;;;;;7.00;6.33;;;;;-143.90;91.33;73845.16;4962958;28;101976;-76
2023/08/26 05:02:17;;;;;;;;;7.33;6.33;;;;;-143.90;90.82;73836.91;4958229;28;103975;-76
2023/08/26 05:04:44;;;;;;;;;8.00;6.67;;;;;-143.90;90.84;73834.84;4955892;28;102121;-77
2023/08/26 05:07:11;;;;;;;;;11.33;11.00;;;;;-143.90;90.66;73824.50;4960596;27;102338;-76
2023/08/26 05:09:37;;;;;;;;;10.33;9.67;;;;;-143.90;90.47;73816.25;4953124;27;103491;-77
2023/08/26 05:12:05;;;;;;;;;7.33;6.67;;;;;-143.90;90.41;73801.78;4955025;28;103072;-76
2023/08/26 05:14:31;;;;;;;;;9.00;8.00;;;;;-143.90;90.05;73785.25;4945672;28;101945;-76
2023/08/26 05:16:58;;;;;;;;;11.00;8.00;;;;;-143.90;89.10;73768.69;4956137;27;102140;-78
2023/08/26 05:19:24;;;;;;;;;8.67;8.67;;;;;-143.90;89.21;73756.31;4962258;28;101904;-76
2023/08/26 05:21:51;;;;;;;;;6.00;6.00;;;;;-143.90;89.02;73733.56;4950709;28;104013;-76
2023/08/26 05:24:18;;;;;;;;;8.33;8.33;;;;;-143.90;88.87;73714.97;4951422;27;102185;-77
2023/08/26 05:26:44;;;;;;;;;7.33;7.33;;;;;-143.90;88.33;73696.38;4956427;27;102607;-76
2023/08/26 05:29:11;;;;;;;;;3.67;2.67;;;;;-143.90;88.62;73677.78;4955889;27;101975;-76
2023/08/26 05:31:37;;;;;;;;;5.67;5.67;;;;;-143.90;89.18;73663.31;4953479;28;104081;-76
2023/08/26 05:34:04;;;;;;;;;4.67;3.67;;;;;-143.90;89.25;73632.31;4951472;28;101821;-76
2023/08/26 05:36:31;;;;;;;;;5.67;5.00;;;;;-143.90;87.56;73595.09;4958083;27;102986;-76
2023/08/26 05:38:57;;;;;;;;;8.33;8.33;;;;;-143.90;85.92;73547.56;4965746;27;104160;-77
2023/08/26 05:41:24;;;;;;;;;8.67;7.33;;;;;-143.90;84.56;73502.09;4952455;28;108620;-77
2023/08/26 05:43:50;;;;;;;;;5.67;5.33;;;;;-143.90;82.57;73466.97;4967391;28;102964;-76
2023/08/26 05:46:17;;;;;;;;;6.00;5.00;;;;;-143.90;79.92;73431.84;4953951;28;102065;-77
2023/08/26 05:48:44;;;;;;;;;10.00;9.67;;;;;-143.90;79.43;73400.84;4956558;27;102549;-77
2023/08/26 05:51:10;;;;;;;;;4.33;4.33;;;;;-143.90;77.18;73361.59;4954250;27;104102;-76
2023/08/26 05:53:37;;;;;;;;;14.67;13.67;;;;;-143.90;76.56;73320.25;4956264;28;102004;-76
2023/08/26 05:56:03;;;;;;;;;18.67;16.67;;;;;-143.90;74.84;73272.72;4956352;28;101927;-77
2023/08/26 05:58:30;;;;;;;;;14.33;14.00;;;;;-143.90;73.36;73243.81;4958645;28;102068;-77
2023/08/26 06:00:57;;;;;;;;;16.00;15.00;;;;;-143.90;72.62;73221.06;4953134;28;104119;-78
2023/08/26 06:03:23;;;;;;;;;19.67;16.33;;;;;-143.90;73.15;73179.75;4952989;28;102094;-77
2023/08/26 06:05:50;;;;;;;;;16.00;15.00;;;;;-143.90;71.28;73163.22;4952476;28;102924;-78
2023/08/26 06:08:17;;;;;;;;;17.67;16.33;;;;;-143.90;72.14;73136.34;4953909;28;102035;-77
2023/08/26 06:10:43;;;;;;;;;18.00;15.33;;;;;-143.90;68.28;73119.81;4957749;27;104199;-77
2023/08/26 06:13:10;;;;;;;;;16.33;14.00;;;;;-143.90;70.77;73123.94;4955970;28;102041;-77
2023/08/26 06:15:38;;;;;;;;;17.33;17.33;;;;;-143.90;70.89;73092.97;4958541;27;102006;-77
2023/08/26 06:18:04;;;;;;;;;14.33;14.00;;;;;-143.90;67.86;73095.03;4958655;28;101959;-77
2023/08/26 06:20:31;;;;;;;;;20.67;19.33;;;;;-143.90;69.50;73082.63;4959072;28;103987;-77
2023/08/26 06:22:59;;;;;;;;;17.00;15.33;;;;;-143.90;67.16;73080.56;4961455;28;101963;-78
2023/08/26 06:25:25;;;;;;;;;15.00;15.00;;;;;-143.90;67.27;73059.91;4958912;27;102085;-77
2023/08/26 06:27:52;;;;;;;;;18.67;17.00;;;;;-143.90;68.42;73041.31;4956801;28;102593;-76
2023/08/26 06:30:18;;;;;;;;;12.33;12.00;;;;;-143.90;65.19;73037.16;4970670;28;104109;-77
2023/08/26 06:32:45;;;;;;;;;13.67;13.67;;;;;-143.90;63.46;73008.25;4957121;27;102096;-77
2023/08/26 06:35:12;;;;;;;;;10.00;9.00;;;;;-143.90;61.81;73002.03;4966258;28;102456;-77
2023/08/26 06:37:39;;;;;;;;;5.00;4.00;;;;;-143.90;61.79;72981.38;4963166;28;102023;-78
2023/08/26 06:40:06;;;;;;;;;11.67;11.00;;;;;-143.90;62.37;72983.44;4948154;28;104203;-77
2023/08/26 06:42:32;;;;;;;;;8.00;8.00;;;;;-143.90;61.99;73006.16;4953311;28;103213;-77
2023/08/26 06:44:59;;;;;;;;;9.67;9.33;;;;;-143.90;63.73;73035.09;4954429;28;101955;-77
2023/08/26 06:47:25;;;;;;;;;7.00;7.00;;;;;-143.90;62.73;73064.03;4963246;28;101944;-76
2023/08/26 06:49:52;;;;;;;;;9.00;9.00;;;;;-143.90;63.63;73080.56;4957670;28;104072;-76
2023/08/26 06:52:19;;;;;;;;;8.67;8.67;;;;;-143.90;63.66;73072.28;4971183;27;102624;-76
2023/08/26 06:54:46;;;;;;;;;13.00;12.00;;;;;-143.90;64.56;73049.56;4962836;28;102036;-78
2023/08/26 06:57:12;;;;;;;;;16.00;15.33;;;;;-143.90;65.46;73039.22;4955864;27;102007;-77
2023/08/26 06:59:39;;;;;;;;;12.67;12.67;;;;;-143.90;64.16;73035.09;4954137;28;104067;-76
2023/08/26 07:02:06;;;;;;;;;12.00;12.00;;;;;-143.90;64.15;73016.50;4958714;28;102453;-77
2023/08/26 07:04:32;;;;;;;;;11.33;10.67;;;;;-143.90;62.15;72997.91;4958987;28;101923;-76
2023/08/26 07:06:59;;;;;;;;;10.00;10.00;;;;;-143.90;62.48;72979.31;4964683;27;102039;-76
2023/08/26 07:09:25;;;;;;;;;8.00;7.00;;;;;-143.90;61.94;72975.19;4958822;28;104310;-77
2023/08/26 07:11:52;;;;;;;;;8.67;8.00;;;;;-143.90;59.76;72966.91;4957006;28;102608;-76
2023/08/26 07:14:18;;;;;;;;;9.00;9.00;;;;;-143.90;61.65;72977.25;4953896;28;102618;-76
2023/08/26 07:16:45;;;;;;;;;12.33;10.67;;;;;-143.90;62.35;72958.66;4953402;28;102037;-76
2023/08/26 07:19:12;;;;;;;;;17.00;15.00;;;;;-143.90;61.53;72952.44;4947038;28;105752;-76
2023/08/26 07:21:39;;;;;;;;;10.33;10.33;;;;;-143.90;59.37;72942.13;4956178;28;102231;-78
2023/08/26 07:24:06;;;;;;;;;10.67;8.67;;;;;-143.90;57.43;72935.91;4961015;28;102079;-76
2023/08/26 07:26:32;;;;;;;;;9.00;7.33;;;;;-143.90;57.81;72927.66;4950303;28;102418;-76
2023/08/26 07:28:59;;;;;;;;;6.33;6.33;;;;;-143.90;59.08;72919.38;4955371;27;104411;-76
2023/08/26 07:31:26;;;;;;;;;8.33;8.33;;;;;-143.90;60.23;72919.38;4951658;28;101818;-75
2023/08/26 07:33:52;;;;;;;;;7.00;6.67;;;;;-143.90;61.24;72890.47;4953405;27;102197;-76
2023/08/26 07:36:19;;;;;;;;;9.00;9.00;;;;;-143.90;58.71;72915.25;4961264;27;102317;-75
2023/08/26 07:38:46;;;;;;;;;9.00;9.00;;;;;-143.90;59.52;72921.47;4952919;27;103965;-75
2023/08/26 07:41:12;;;;;;;;;8.00;8.00;;;;;-143.90;60.95;72929.72;4953350;28;102418;-75
2023/08/26 07:43:39;;;;;;;;;9.67;9.33;;;;;-143.90;61.09;72911.13;4952433;28;102234;-76
2023/08/26 07:46:05;;;;;;;;;8.00;7.00;;;;;-143.90;60.57;72890.47;4956352;28;102502;-76
2023/08/26 07:48:35;;;;;;;;;5.25;5.25;;;;;-143.90;59.08;72873.94;4954264;28;103980;-76
2023/08/26 07:51:03;;;;;;;;;5.00;4.67;;;;;-143.90;58.25;72859.47;4957622;28;102206;-76
2023/08/26 07:53:29;;;;;;;;;5.00;4.00;;;;;-143.90;54.83;72853.28;4956902;27;102279;-76
2023/08/26 07:55:56;;;;;;;;;3.25;3.25;;;;;-143.90;54.96;72849.13;4960393;28;102429;-77
2023/08/26 07:58:23;;;;;;;;;4.33;4.33;;;;;-143.90;54.48;72847.06;4956422;27;104021;-76
2023/08/26 08:00:49;;;;;;;;;4.25;3.75;;;;;-143.90;53.72;72842.94;4941586;28;102011;-76
2023/08/26 08:03:16;;;;;;;;;5.00;5.00;;;;;-143.90;55.02;72832.59;4952183;28;102431;-75
2023/08/26 08:05:43;;;;;;;;;6.00;6.00;;;;;-143.90;51.10;72832.59;4958723;28;102773;-76
2023/08/26 08:08:10;;;;;;;;;4.00;4.00;;;;;-143.90;52.39;72822.28;4959233;28;104068;-76
2023/08/26 08:10:36;;;;;;;;;6.67;6.67;;;;;-143.90;53.45;72836.75;4949924;28;102199;-78
2023/08/26 08:13:04;;;;;;;;;14.67;13.67;;;;;-143.90;52.02;72840.88;4956577;28;102275;-77
2023/08/26 08:15:31;;;;;;;;;7.00;7.00;;;;;-143.90;54.85;72828.47;4952267;28;102043;-77
2023/08/26 08:17:57;;;;;;;;;8.00;6.67;;;;;-143.90;49.36;72811.94;4954672;27;104100;-77
2023/08/26 08:20:24;;;;;;;;;4.00;4.00;;;;;-143.90;49.87;72787.16;4959531;28;102179;-76
2023/08/26 08:22:51;;;;;;;;;5.00;5.00;;;;;-143.90;48.64;72791.28;4955005;28;101892;-76
2023/08/26 08:25:17;;;;;;;;;3.75;2.50;;;;;-143.90;50.26;72793.34;4957078;28;102282;-76
2023/08/26 08:27:44;;;;;;;;;1.00;1.00;;;;;-143.90;54.44;72776.81;4949221;28;104076;-76
2023/08/26 08:30:11;;;;;;;;;2.00;2.00;;;;;-143.90;53.44;72760.28;4949840;28;102734;-76
2023/08/26 08:32:37;;;;;;;;;2.00;2.00;;;;;-143.90;52.73;72741.69;4951585;28;102528;-76
2023/08/26 08:35:04;;;;;;;;;1.75;1.75;;;;;-143.90;51.11;72749.97;4949225;28;102222;-77
2023/08/26 08:37:31;;;;;;;;;2.75;2.00;;;;;-143.90;48.29;72741.69;4960424;27;104169;-76
2023/08/26 08:39:59;;;;;;;;;4.00;3.25;;;;;-143.90;49.24;72716.91;4949336;28;103650;-77
2023/08/26 08:42:26;;;;;;;;;1.00;1.00;;;;;-143.90;49.40;72706.56;4967856;28;102229;-76
2023/08/26 08:44:55;;;;;;;;;2.00;2.00;;;;;-143.90;48.07;72687.97;4971469;28;102403;-76
2023/08/26 08:47:22;;;;;;;;;0.00;0.00;;;;;-143.90;49.30;72675.59;4968859;27;104068;-76
2023/08/26 08:49:49;;;;;;;;;4.25;4.25;;;;;-143.90;47.68;72700.38;4963187;27;102387;-76
2023/08/26 08:52:16;;;;;;;;;3.50;3.00;;;;;-143.90;47.48;72679.72;4955157;27;102399;-76
2023/08/26 08:54:44;;;;;;;;;3.50;3.00;;;;;-143.90;44.46;72692.09;4965935;27;102097;-76
2023/08/26 08:57:13;;;;;;;;;3.00;2.00;;;;;-143.90;49.06;72669.38;4953755;28;104254;-76
2023/08/26 08:59:40;;;;;;;;;1.75;1.75;;;;;-143.90;48.20;72654.91;4954447;28;102361;-77
2023/08/26 09:02:10;;;;;;;;;3.25;3.00;;;;;-143.90;44.79;72667.31;4962214;27;102067;-76
2023/08/26 09:04:38;;;;;;;;;2.00;2.00;;;;;-143.90;44.04;72648.72;4956179;27;102085;-77
2023/08/26 09:07:06;;;;;;;;;2.75;2.75;;;;;-143.90;47.71;72626.00;4958750;27;104118;-76
2023/08/26 09:09:33;;;;;;;;;2.50;2.50;;;;;-143.90;41.74;72638.41;4955626;27;102125;-77
2023/08/26 09:12:13;;;;;;;;;6.25;5.75;;;;;-143.90;43.15;72675.59;4950487;27;102006;-75
2023/08/26 09:14:40;;;;;;;;;6.00;6.00;;;;;-143.90;44.55;72644.59;4953285;28;102373;-75
2023/08/26 09:17:18;;;;;;;;;5.00;4.75;;;;;-143.90;43.55;72636.31;4949135;28;103810;-76
2023/08/26 09:19:52;;;;;;;;;2.50;2.50;;;;;-143.90;42.79;72636.31;4966477;28;102216;-76
2023/08/26 09:22:20;;;;;;;;;2.25;2.25;;;;;-143.90;43.55;72661.13;4951658;27;102455;-76
2023/08/26 09:24:47;;;;;;;;;1.00;1.00;;;;;-143.90;45.08;72667.31;4951348;28;102289;-76
2023/08/26 09:27:15;;;;;;;;;4.75;4.75;;;;;-143.90;46.90;72692.09;4948777;28;104323;-76
2023/08/26 09:29:42;;;;;;;;;2.00;2.00;;;;;-143.90;45.52;72692.09;4960068;28;102299;-77
2023/08/26 09:32:08;;;;;;;;;2.00;2.00;;;;;-143.90;46.51;72700.38;4952910;28;101825;-76
2023/08/26 09:34:35;;;;;;;;;1.00;1.00;;;;;-143.90;48.08;72696.25;4954055;27;103367;-76
2023/08/26 09:37:03;;;;;;;;;2.00;1.00;;;;;-143.90;46.61;72681.78;4952457;27;104396;-77
2023/08/26 09:39:30;;;;;;;;;3.25;2.75;;;;;-143.90;44.19;72687.97;4950381;27;101956;-76
2023/08/26 09:41:57;;;;;;;;;2.25;2.25;;;;;-143.90;47.39;72698.31;4957840;28;102584;-76
2023/08/26 09:44:24;;;;;;;;;2.00;2.00;;;;;-143.90;44.72;72696.25;4957026;28;102266;-77
2023/08/26 09:46:55;;;;;;;;;3.00;3.00;;;;;-143.90;44.27;72687.97;4960771;27;104109;-77
2023/08/26 09:49:22;;;;;;;;;2.25;1.50;;;;;-143.90;43.67;72679.72;4970351;27;102326;-77
2023/08/26 09:51:50;;;;;;;;;3.00;3.00;;;;;-143.90;43.75;72681.78;4973545;27;102127;-76
2023/08/26 09:54:18;;;;;;;;;1.25;1.25;;;;;-143.90;44.06;72679.72;4963449;27;102565;-77
2023/08/26 09:56:46;;;;;;;;;3.00;1.75;;;;;-143.90;43.49;72663.19;4958041;28;104364;-78
2023/08/26 09:59:13;;;;;;;;;2.50;1.50;;;;;-143.90;44.37;72667.31;4960396;27;102278;-77
2023/08/26 10:01:41;;;;;;;;;1.00;1.00;;;;;-143.90;44.97;72659.06;4962006;27;102090;-77
2023/08/26 10:04:09;;;;;;;;;2.25;2.25;;;;;-143.90;43.72;72669.38;4957053;28;102137;-75
2023/08/26 10:06:46;;;;;;;;;3.00;3.00;;;;;-143.90;42.97;72679.72;4950358;28;104133;-79
2023/08/26 10:09:31;;;;;;;;;1.75;1.75;;;;;-143.90;48.76;72671.44;4953964;27;102133;-76
2023/08/26 10:12:03;;;;;;;;;2.00;2.00;;;;;-143.90;47.12;72671.44;4950071;27;101974;-79
2023/08/26 10:14:32;;;;;;;;;1.25;1.00;;;;;-143.90;45.99;72650.78;4955259;27;102204;-77
2023/08/26 10:17:02;;;;;;;;;0.75;0.75;;;;;-143.90;44.51;72634.25;4956211;28;104047;-80
2023/08/26 10:19:30;;;;;;;;;1.00;1.00;;;;;-143.90;42.81;72634.25;4957132;28;102487;-78
2023/08/26 10:21:59;;;;;;;;;1.50;1.50;;;;;-143.90;42.98;72646.66;4956449;27;102059;-80
2023/08/26 10:24:27;;;;;;;;;3.00;3.00;;;;;-143.90;41.60;72626.00;4949483;27;103012;-79
2023/08/26 10:26:54;;;;;;;;;3.00;2.00;;;;;-143.90;43.43;72630.13;4952579;28;109532;-80
2023/08/26 10:29:21;;;;;;;;;1.00;1.00;;;;;-143.90;42.34;72652.84;4951251;28;102306;-80
2023/08/26 10:31:48;;;;;;;;;2.00;2.00;;;;;-143.90;42.95;72661.13;4967806;27;102423;-79
2023/08/26 10:34:15;;;;;;;;;0.25;0.25;;;;;-143.90;42.38;72681.78;4957946;28;102285;-80
2023/08/26 10:36:47;;;;;;;;;2.00;2.00;;;;;-143.90;43.18;72710.72;4958584;27;104193;-79
2023/08/26 10:39:20;;;;;;;;;1.25;1.00;;;;;-143.90;44.75;72723.09;4956918;27;101883;-79
2023/08/26 10:42:18;;;;;;;;;2.00;2.00;;;;;-143.90;44.12;72752.03;4968405;28;102205;-77
2023/08/26 10:44:47;;;;;;;;;1.75;1.25;;;;;-143.90;45.52;72766.50;4956353;28;102009;-81
2023/08/26 10:47:32;;;;;;;;;2.75;1.00;;;;;-143.90;44.81;72774.75;4956531;28;104449;-76
2023/08/26 10:50:12;;;;;;;;;4.00;3.25;;;;;-143.90;45.71;72783.03;4950663;28;102429;-79
2023/08/26 10:52:41;;;;;;;;;0.75;0.75;;;;;-143.90;45.55;72785.09;4953818;27;102288;-78
2023/08/26 10:55:28;;;;;;;;;1.75;1.00;;;;;-143.90;46.27;72783.03;4957482;27;102032;-79
2023/08/26 10:58:12;;;;;;;;;3.00;2.00;;;;;-143.90;47.09;72780.97;4967966;28;109092;-79
2023/08/26 11:00:57;;;;;;;;;0.50;0.50;;;;;-143.90;46.34;72785.09;4950625;28;102203;-76
2023/08/26 11:03:26;;;;;;;;;2.00;2.00;;;;;-143.90;46.50;72791.28;4963053;28;101940;-76
2023/08/26 11:06:04;;;;;;;;;2.00;2.00;;;;;-143.90;46.92;72789.22;4959833;28;101989;-76
2023/08/26 11:08:31;;;;;;;;;1.25;1.00;;;;;-143.90;46.85;72787.16;4955940;28;108716;-76
2023/08/26 11:10:58;;;;;;;;;1.50;1.25;;;;;-143.90;48.27;72799.56;4956662;28;101968;-77